Time;durP1;ratioP1;P1;durP2;ratioP2;P2;SDS_P1;SDS_P2;PMS_P1;PMS_P2;Temp;Humidity;BMP_temperature;BMP_pressure;BME280_temperature;BME280_humidity;BME280_pressure;Samples;Min_cycle;Max_cycle;Signal;HPM_P1;HPM_P2
2021/12/25 00:01:34;;;;;;;;;;;8.60;99.90;;;8.84;100.00;99382.22;4936253;29;19937;-77
2021/12/25 00:04:04;;;;;;;;;;;8.60;99.90;;;8.77;100.00;99385.00;4953807;29;19962;-77
2021/12/25 00:06:31;;;;;;;;;;;8.60;99.90;;;8.80;100.00;99391.94;4954452;29;19930;-77
2021/12/25 00:08:58;;;;;;;;;;;10.20;99.90;;;8.71;100.00;99382.59;4954716;29;19931;-77
2021/12/25 00:11:25;;;;;;;;;;;8.50;99.90;;;8.67;100.00;99383.63;4952668;29;20557;-77
2021/12/25 00:13:55;;;;;;;;;;;8.50;99.90;;;8.69;100.00;99379.19;4952478;29;19937;-78
2021/12/25 00:16:40;;;;;;;;;;;8.80;99.90;;;8.69;100.00;99379.19;4953020;29;19918;-78
2021/12/25 00:19:07;;;;;;;;;;;8.50;99.90;;;8.74;100.00;99385.13;4969180;28;19933;-77
2021/12/25 00:21:38;;;;;;;;;;;8.50;99.90;;;8.75;100.00;99378.97;4954835;29;20028;-77
2021/12/25 00:24:11;;;;;;;;;;;8.50;99.90;;;8.75;100.00;99376.34;4953650;29;19968;-77
2021/12/25 00:29:53;;;;;;;;;;;8.50;99.90;;;8.85;100.00;99376.06;4973524;28;19933;-77
2021/12/25 00:34:52;;;;;;;;;;;8.60;99.90;;;8.91;100.00;99373.22;4972093;28;19932;-77
2021/12/25 00:37:19;;;;;;;;;;;8.70;99.90;;;8.90;100.00;99371.50;4987539;28;19930;-77
2021/12/25 00:39:51;;;;;;;;;;;8.60;99.90;;;8.90;100.00;99366.25;4971003;28;19930;-77
2021/12/25 00:42:18;;;;;;;;;;;8.60;99.90;;;8.94;100.00;99365.25;4970860;28;19937;-78
2021/12/25 00:44:44;;;;;;;;;;;8.70;99.90;;;8.99;100.00;99365.09;4971402;28;19930;-77
2021/12/25 00:47:12;;;;;;;;;;;10.20;99.90;;;8.98;100.00;99366.88;4987257;28;19949;-77
2021/12/25 00:49:39;;;;;;;;;;;8.70;99.90;;;9.01;100.00;99373.75;4970799;28;19930;-77
2021/12/25 00:52:08;;;;;;;;;;;8.70;99.90;;;9.02;100.00;99365.84;4970711;28;19957;-77
2021/12/25 00:54:36;;;;;;;;;;;8.70;99.90;;;8.99;100.00;99360.72;4968111;28;19930;-77
2021/12/25 00:57:03;;;;;;;;;;;8.80;99.90;;;9.03;100.00;99370.19;4938643;28;20307;-76
2021/12/25 00:59:30;;;;;;;;;;;8.70;99.90;;;9.04;100.00;99357.91;4953792;28;19934;-77
2021/12/25 01:01:58;;;;;;;;;;;9.10;99.90;;;9.03;100.00;99361.44;4955301;28;19976;-77
2021/12/25 01:04:29;;;;;;;;;;;9.90;99.90;;;9.02;100.00;99363.22;4951499;28;19987;-76
2021/12/25 01:06:56;;;;;;;;;;;8.80;99.90;;;9.06;100.00;99367.47;4968594;28;19940;-77
2021/12/25 01:09:23;;;;;;;;;;;8.90;99.90;;;9.06;100.00;99364.84;4953439;28;19930;-77
2021/12/25 01:11:52;;;;;;;;;;;9.10;99.90;;;9.06;100.00;99369.25;4953406;28;20058;-77
2021/12/25 01:17:25;;;;;;;;;;;9.00;99.90;;;9.13;100.00;99370.72;4972090;28;19932;-77
2021/12/25 01:20:18;;;;;;;;;;;8.80;99.90;;;9.13;100.00;99367.22;4954920;28;19976;-76
2021/12/25 01:30:58;;;;;;;;;;;8.80;99.90;;;9.10;100.00;99360.34;4934076;29;19933;-77
2021/12/25 01:34:23;;;;;;;;;;;10.30;99.90;;;9.11;100.00;99364.69;4950348;28;19931;-77
2021/12/25 01:48:35;;;;;;;;;;;8.80;99.90;;;9.12;100.00;99355.91;4934046;29;19954;-77
2021/12/25 01:51:02;;;;;;;;;;;9.30;99.90;;;9.05;100.00;99355.25;4950075;28;19993;-77
2021/12/25 01:53:28;;;;;;;;;;;8.80;99.90;;;9.10;100.00;99351.59;4916888;29;19930;-78
2021/12/25 01:55:58;;;;;;;;;;;8.80;99.90;;;9.10;100.00;99349.84;4945208;28;19933;-77
2021/12/25 01:58:25;;;;;;;;;;;10.00;99.90;;;9.13;100.00;99349.75;4985425;28;19961;-78
2021/12/25 02:00:55;;;;;;;;;;;8.80;99.90;;;9.10;100.00;99349.84;4969162;28;19933;-77
2021/12/25 02:03:26;;;;;;;;;;;8.90;99.90;;;9.05;100.00;99343.88;4967688;28;19930;-79
2021/12/25 02:05:54;;;;;;;;;;;8.90;99.90;;;9.09;100.00;99348.13;4953377;28;19952;-77
2021/12/25 02:08:28;;;;;;;;;;;8.80;99.90;;;9.02;100.00;99338.75;4969847;28;19930;-77
2021/12/25 02:10:56;;;;;;;;;;;10.40;99.90;;;9.10;100.00;99347.22;4969380;28;20331;-77
2021/12/25 02:13:24;;;;;;;;;;;9.50;99.90;;;9.14;100.00;99345.34;4959169;28;19942;-81
2021/12/25 02:15:55;;;;;;;;;;;8.80;99.90;;;9.11;100.00;99346.31;4962417;28;19930;-82
2021/12/25 02:18:30;;;;;;;;;;;9.10;99.90;;;9.15;100.00;99339.19;4957250;28;20370;-80
2021/12/25 02:21:21;;;;;;;;;;;8.90;99.90;;;9.15;100.00;99333.94;4968621;28;20642;-79
2021/12/25 02:23:49;;;;;;;;;;;8.90;99.90;;;9.13;100.00;99335.75;4976358;28;20580;-80
2021/12/25 02:26:21;;;;;;;;;;;9.20;99.90;;;9.12;100.00;99331.41;4958064;28;20302;-78
2021/12/25 02:28:49;;;;;;;;;;;10.80;99.90;;;9.16;100.00;99339.13;4954214;28;19930;-78
2021/12/25 02:31:17;;;;;;;;;;;8.90;99.90;;;9.17;100.00;99340.84;4954002;28;19966;-78
2021/12/25 02:33:44;;;;;;;;;;;8.90;99.90;;;9.16;100.00;99336.50;4953108;28;19977;-78
2021/12/25 02:36:13;;;;;;;;;;;9.50;99.90;;;9.11;100.00;99327.94;4969982;28;19969;-79
2021/12/25 02:38:45;;;;;;;;;;;10.60;99.90;;;9.18;100.00;99328.59;4954781;28;20025;-78
2021/12/25 02:41:14;;;;;;;;;;;9.00;99.90;;;9.21;100.00;99325.84;4970385;28;20029;-79
2021/12/25 02:43:44;;;;;;;;;;;9.00;99.90;;;9.19;100.00;99325.06;4968333;28;20382;-79
2021/12/25 02:46:15;;;;;;;;;;;9.90;99.90;;;9.18;100.00;99324.19;4970951;28;20066;-80
2021/12/25 02:48:43;;;;;;;;;;;8.90;99.90;;;9.19;100.00;99312.75;4970401;28;20016;-78
2021/12/25 02:51:11;;;;;;;;;;;9.00;99.90;;;9.22;100.00;99317.94;4970278;28;19969;-80
2021/12/25 02:53:39;;;;;;;;;;;9.00;99.90;;;9.23;100.00;99310.91;4956197;28;20028;-78
2021/12/25 02:56:06;;;;;;;;;;;10.10;99.90;;;9.24;100.00;99312.59;4957333;28;19926;-79
2021/12/25 02:58:37;;;;;;;;;;;9.00;99.90;;;9.27;100.00;99309.88;4973913;28;20028;-80
2021/12/25 03:01:13;;;;;;;;;;;9.00;99.90;;;9.27;100.00;99306.41;4957341;28;19927;-78
2021/12/25 03:03:42;;;;;;;;;;;9.00;99.90;;;9.27;100.00;99309.03;4972785;28;19930;-79
2021/12/25 03:06:09;;;;;;;;;;;9.00;99.90;;;9.29;100.00;99312.44;4973995;28;19949;-78
2021/12/25 03:08:37;;;;;;;;;;;9.10;99.90;;;9.26;100.00;99302.06;4973681;28;19930;-79
2021/12/25 03:11:23;;;;;;;;;;;9.90;99.90;;;9.26;100.00;99294.19;4959781;28;19934;-80
2021/12/25 03:13:59;;;;;;;;;;;9.40;99.90;;;9.25;100.00;99290.69;4972043;28;19930;-80
2021/12/25 03:16:28;;;;;;;;;;;9.30;99.90;;;9.26;100.00;99292.41;4973358;28;20306;-80
2021/12/25 03:18:59;;;;;;;;;;;9.10;99.90;;;9.18;100.00;99289.22;4957211;28;20376;-78
2021/12/25 03:21:26;;;;;;;;;;;10.80;99.90;;;9.19;100.00;99288.31;4973163;28;19949;-79
2021/12/25 03:23:56;;;;;;;;;;;9.00;99.90;;;9.17;100.00;99295.38;4956158;28;20024;-79
2021/12/25 03:26:26;;;;;;;;;;;10.90;99.90;;;9.19;100.00;99294.41;4973214;28;20403;-80
2021/12/25 03:28:53;;;;;;;;;;;8.90;99.90;;;9.21;100.00;99310.09;4973134;28;19930;-78
2021/12/25 03:31:21;;;;;;;;;;;9.90;99.90;;;9.20;100.00;99309.22;4972997;28;19950;-78
2021/12/25 03:33:54;;;;;;;;;;;9.40;99.90;;;9.23;100.00;99308.28;4972432;28;19977;-78
2021/12/25 03:36:22;;;;;;;;;;;9.50;99.90;;;9.22;100.00;99312.69;4973387;28;19996;-78
2021/12/25 03:38:49;;;;;;;;;;;8.90;99.90;;;9.26;100.00;99320.44;4973493;28;19969;-79
2021/12/25 03:41:17;;;;;;;;;;;8.90;99.90;;;9.26;100.00;99310.78;4957686;28;19933;-79
2021/12/25 03:43:45;;;;;;;;;;;9.90;99.90;;;9.24;100.00;99306.53;4956905;28;19937;-80
2021/12/25 03:46:13;;;;;;;;;;;8.90;99.90;;;9.28;100.00;99308.13;4974393;28;19934;-79
2021/12/25 03:59:18;;;;;;;;;;;9.00;99.90;;;9.15;100.00;99291.97;4991133;28;19930;-80
2021/12/25 04:01:51;;;;;;;;;;;9.00;99.90;;;9.13;100.00;99278.00;4990830;28;19929;-78
2021/12/25 04:04:32;;;;;;;;;;;9.10;99.90;;;9.14;100.00;99274.50;4968469;28;19934;-77
2021/12/25 04:07:18;;;;;;;;;;;10.50;99.90;;;9.16;100.00;99272.69;4967314;28;19972;-78
2021/12/25 04:09:47;;;;;;;;;;;10.30;99.90;;;9.12;100.00;99269.28;4953082;28;19933;-79
2021/12/25 04:12:16;;;;;;;;;;;9.60;99.90;;;9.14;100.00;99282.38;4936388;29;20504;-78
2021/12/25 04:14:47;;;;;;;;;;;8.90;99.90;;;9.21;100.00;99271.59;4951499;29;20300;-78
2021/12/25 04:17:14;;;;;;;;;;;10.50;99.90;;;9.18;100.00;99255.94;4952486;29;20347;-78
2021/12/25 04:20:02;;;;;;;;;;;9.00;99.90;;;9.18;100.00;99269.06;4955547;28;19988;-78
2021/12/25 04:22:40;;;;;;;;;;;9.60;99.90;;;9.22;100.00;99261.94;4935541;29;19930;-79
2021/12/25 04:25:08;;;;;;;;;;;8.90;99.90;;;9.22;100.00;99262.81;4967970;28;19931;-78
2021/12/25 04:27:35;;;;;;;;;;;9.00;99.90;;;9.24;100.00;99260.13;4968808;28;20045;-78
2021/12/25 04:30:15;;;;;;;;;;;8.90;99.90;;;9.28;100.00;99268.75;4968700;28;19962;-78
2021/12/25 04:49:33;;;;;;;;;;;9.10;99.90;;;9.30;100.00;99256.41;4973150;28;19953;-79
2021/12/25 05:03:18;;;;;;;;;;;10.10;99.90;;;9.29;100.00;99246.84;4970882;28;20302;-79
2021/12/25 05:05:57;;;;;;;;;;;8.70;99.90;;;9.27;100.00;99241.63;4972010;28;19930;-80
2021/12/25 05:08:35;;;;;;;;;;;9.10;99.90;;;9.29;100.00;99238.97;4972989;28;20446;-79
2021/12/25 05:11:20;;;;;;;;;;;9.10;99.90;;;9.29;100.00;99244.22;4972740;28;19922;-79
2021/12/25 05:13:51;;;;;;;;;;;9.10;99.90;;;9.30;100.00;99244.16;4971020;28;20299;-79
2021/12/25 05:16:23;;;;;;;;;;;8.20;99.90;;;9.27;100.00;99246.03;4972590;28;19976;-80
2021/12/25 05:18:51;;;;;;;;;;;9.70;99.90;;;9.31;100.00;99245.00;4972773;28;19929;-79
2021/12/25 05:21:18;;;;;;;;;;;10.80;99.90;;;9.30;100.00;99238.03;4973189;28;19958;-79
2021/12/25 05:23:47;;;;;;;;;;;9.10;99.90;;;9.32;100.00;99241.47;4955942;28;19930;-80
2021/12/25 05:26:22;;;;;;;;;;;11.70;99.90;;;9.26;100.00;99237.28;4972683;28;19964;-80
2021/12/25 05:29:00;;;;;;;;;;;9.20;99.90;;;9.26;100.00;99244.31;4975064;28;19992;-80
2021/12/25 05:31:36;;;;;;;;;;;9.50;99.90;;;9.29;100.00;99237.19;4988867;28;20033;-77
2021/12/25 05:34:18;;;;;;;;;;;9.20;99.90;;;9.31;100.00;99243.25;4972290;28;20371;-80
2021/12/25 05:36:56;;;;;;;;;;;9.10;99.90;;;9.34;100.00;99240.50;4986695;28;19934;-80
2021/12/25 05:39:22;;;;;;;;;;;9.20;99.90;;;9.33;100.00;99238.78;4989200;28;19930;-80
2021/12/25 05:41:50;;;;;;;;;;;10.70;99.90;;;9.27;100.00;99239.00;4988527;28;19930;-80
2021/12/25 05:44:25;;;;;;;;;;;9.10;99.90;;;9.31;100.00;99243.25;4975132;28;19950;-80
2021/12/25 05:47:21;;;;;;;;;;;9.20;99.90;;;9.29;100.00;99245.06;4974179;28;19930;-80
2021/12/25 05:49:52;;;;;;;;;;;10.00;99.90;;;9.32;100.00;99251.97;4988198;28;19926;-80
2021/12/25 05:52:28;;;;;;;;;;;9.60;99.90;;;9.32;100.00;99257.22;4987569;28;20017;-80
2021/12/25 05:55:09;;;;;;;;;;;9.30;99.90;;;9.33;100.00;99244.03;4972886;28;19969;-81
2021/12/25 05:57:42;;;;;;;;;;;9.20;99.90;;;9.32;100.00;99257.22;4986601;28;19930;-80
2021/12/25 06:00:44;;;;;;;;;;;9.20;99.90;;;9.26;100.00;99242.53;4975080;28;19926;-80
2021/12/25 06:03:11;;;;;;;;;;;11.50;99.90;;;9.34;100.00;99243.13;4971404;28;20376;-80
2021/12/25 06:05:39;;;;;;;;;;;9.20;99.90;;;9.30;100.00;99246.78;4970171;28;19930;-80
2021/12/25 06:08:06;;;;;;;;;;;9.20;99.90;;;9.35;100.00;99241.34;4970233;28;19927;-78
2021/12/25 06:10:34;;;;;;;;;;;9.20;99.90;;;9.36;100.00;99246.53;4969907;28;19934;-80
2021/12/25 06:13:01;;;;;;;;;;;9.30;99.90;;;9.39;100.00;99247.34;4937636;29;19931;-79
2021/12/25 06:15:33;;;;;;;;;;;9.40;99.90;;;9.35;100.00;99244.84;4954263;29;19935;-79
2021/12/25 06:18:15;;;;;;;;;;;10.00;99.90;;;9.31;100.00;99240.63;4954133;29;19931;-79
2021/12/25 06:20:48;;;;;;;;;;;9.20;99.90;;;9.35;100.00;99244.84;4953617;29;19926;-79
2021/12/25 06:23:33;;;;;;;;;;;9.20;99.90;;;9.36;100.00;99249.19;4952858;29;19934;-80
2021/12/25 06:26:18;;;;;;;;;;;9.20;99.90;;;9.38;100.00;99245.63;4938021;28;19931;-80
2021/12/25 06:28:59;;;;;;;;;;;9.50;99.90;;;9.33;100.00;99241.41;4957539;29;19966;-79
2021/12/25 06:31:46;;;;;;;;;;;8.80;99.90;;;9.37;100.00;99244.78;4956849;29;19962;-79
2021/12/25 06:34:33;;;;;;;;;;;9.20;99.90;;;9.38;100.00;99253.50;4956873;29;19934;-80
2021/12/25 06:37:09;;;;;;;;;;;10.10;99.90;;;9.35;100.00;99250.09;4957952;29;19962;-80
2021/12/25 06:39:54;;;;;;;;;;;9.20;99.90;;;9.38;100.00;99251.75;4957229;29;19937;-80
2021/12/25 06:42:33;;;;;;;;;;;9.50;99.90;;;9.35;100.00;99249.22;4972741;28;20300;-80
2021/12/25 06:45:00;;;;;;;;;;;11.00;99.90;;;9.33;100.00;99254.53;4956285;29;19934;-79
2021/12/25 06:47:28;;;;;;;;;;;9.20;99.90;;;9.35;100.00;99252.72;4957435;29;19930;-79
2021/12/25 06:49:56;;;;;;;;;;;10.20;99.90;;;9.32;100.00;99258.09;4940541;29;20007;-80
2021/12/25 06:52:45;;;;;;;;;;;9.40;99.90;;;9.35;100.00;99257.97;4955849;29;20020;-80
2021/12/25 06:55:31;;;;;;;;;;;10.40;99.90;;;9.34;100.00;99265.88;4956713;29;19937;-79
2021/12/25 06:58:13;;;;;;;;;;;9.40;99.90;;;9.34;100.00;99260.63;4973266;28;19938;-80
2021/12/25 07:00:40;;;;;;;;;;;9.20;99.90;;;9.30;100.00;99264.28;4956971;29;19927;-79
2021/12/25 07:03:09;;;;;;;;;;;8.60;99.90;;;9.30;100.00;99270.41;4971967;28;19936;-79
2021/12/25 07:05:55;;;;;;;;;;;9.30;99.90;;;9.32;100.00;99265.97;4963345;29;19937;-79
2021/12/25 07:08:40;;;;;;;;;;;9.30;99.90;;;9.35;100.00;99262.34;4959206;29;19934;-79
2021/12/25 07:11:30;;;;;;;;;;;9.30;99.90;;;9.35;100.00;99259.72;4953559;29;19930;-80
2021/12/25 07:14:23;;;;;;;;;;;9.00;99.90;;;9.35;100.00;99262.34;4941194;29;19938;-79
2021/12/25 07:17:19;;;;;;;;;;;9.80;99.90;;;9.36;100.00;99258.81;4933507;29;19938;-79
2021/12/25 07:20:11;;;;;;;;;;;9.30;99.90;;;9.32;100.00;99271.22;4973429;28;19933;-80
2021/12/25 07:23:10;;;;;;;;;;;10.50;99.90;;;9.34;100.00;99273.75;4943302;28;19926;-79
2021/12/25 07:25:58;;;;;;;;;;;9.20;99.90;;;9.26;100.00;99271.41;4991082;28;20044;-80
2021/12/25 07:28:51;;;;;;;;;;;9.70;99.90;;;9.32;100.00;99279.09;4960178;28;20379;-79
2021/12/25 07:31:20;;;;;;;;;;;9.30;99.90;;;9.34;100.00;99274.63;4990536;28;20296;-80
2021/12/25 07:33:47;;;;;;;;;;;9.20;99.90;;;9.34;100.00;99272.00;4989601;28;19934;-81
2021/12/25 07:36:14;;;;;;;;;;;9.30;99.90;;;9.33;100.00;99272.91;4959848;28;19973;-80
2021/12/25 07:38:42;;;;;;;;;;;10.70;99.90;;;9.31;100.00;99274.75;4959652;28;19933;-80
2021/12/25 07:41:09;;;;;;;;;;;10.10;99.90;;;9.36;100.00;99279.81;4973753;28;19937;-80
2021/12/25 07:43:39;;;;;;;;;;;9.30;99.90;;;9.37;100.00;99278.91;4957516;28;20020;-77
2021/12/25 07:46:22;;;;;;;;;;;9.30;99.90;;;9.32;100.00;99281.72;4977061;28;19933;-80
2021/12/25 07:48:49;;;;;;;;;;;9.30;99.90;;;9.32;100.00;99289.59;4974639;28;19926;-80
2021/12/25 07:51:19;;;;;;;;;;;10.10;99.90;;;9.31;100.00;99281.75;4958382;28;19937;-81
2021/12/25 07:53:46;;;;;;;;;;;9.30;99.90;;;9.26;100.00;99281.91;4975623;28;19926;-79
2021/12/25 07:56:14;;;;;;;;;;;10.80;99.90;;;9.30;100.00;99291.41;4974420;28;19934;-79
2021/12/25 07:58:42;;;;;;;;;;;9.50;99.90;;;9.33;100.00;99291.28;4958300;28;19945;-80
2021/12/25 08:01:10;;;;;;;;;;;11.60;99.90;;;9.36;100.00;99296.44;4974349;28;19958;-80
2021/12/25 08:03:37;;;;;;;;;;;9.30;99.90;;;9.38;100.00;99299.00;4958634;28;19937;-80
2021/12/25 08:06:04;;;;;;;;;;;10.10;99.90;;;9.35;100.00;99305.22;4974423;28;19934;-80
2021/12/25 08:08:31;;;;;;;;;;;9.30;99.90;;;9.36;100.00;99298.19;4958240;28;19932;-80
2021/12/25 08:11:15;;;;;;;;;;;10.20;99.90;;;9.43;100.00;99310.19;4975186;28;19918;-79
2021/12/25 08:13:49;;;;;;;;;;;10.40;99.90;;;9.47;100.00;99308.31;4973867;28;19926;-77
2021/12/25 08:16:16;;;;;;;;;;;9.30;99.90;;;9.49;100.00;99309.13;4976169;28;19926;-78
2021/12/25 08:18:43;;;;;;;;;;;10.40;99.90;;;9.47;100.00;99311.78;4973928;28;20590;-80
2021/12/25 08:21:29;;;;;;;;;;;9.70;99.90;;;9.53;100.00;99310.72;4969124;28;20033;-78
2021/12/25 08:24:18;;;;;;;;;;;10.20;99.90;;;9.57;100.00;99319.34;4969753;28;19933;-79
2021/12/25 08:27:05;;;;;;;;;;;9.80;99.90;;;9.57;100.00;99317.56;4945005;29;19982;-79
2021/12/25 08:29:50;;;;;;;;;;;9.50;99.90;;;9.63;100.00;99306.84;4977911;28;19937;-79
2021/12/25 08:32:41;;;;;;;;;;;9.50;99.90;;;9.67;100.00;99312.81;4975783;28;19930;-80
2021/12/25 08:35:37;;;;;;;;;;;9.50;99.90;;;9.67;100.00;99314.59;4947468;28;19927;-80
2021/12/25 08:38:04;;;;;;;;;;;9.50;99.90;;;9.67;100.00;99323.31;4955367;28;19937;-80
2021/12/25 08:40:31;;;;;;;;;;;10.00;99.90;;;9.65;100.00;99319.91;4971576;28;20437;-79
2021/12/25 08:43:01;;;;;;;;;;;9.30;99.90;;;9.75;100.00;99315.16;4971254;28;19938;-78
2021/12/25 08:48:08;;;;;;;;;;;9.60;99.90;;;9.78;100.00;99330.81;4976135;28;19930;-79
2021/12/25 08:50:35;;;;;;;;;;;10.60;99.90;;;9.78;100.00;99339.53;4962228;28;20369;-80
2021/12/25 08:53:04;;;;;;;;;;;9.60;99.90;;;9.78;100.00;99346.59;4962212;28;19934;-79
2021/12/25 08:55:32;;;;;;;;;;;9.70;99.90;;;9.72;100.00;99342.41;4932573;29;20487;-79
2021/12/25 08:57:59;;;;;;;;;;;10.70;99.90;;;9.78;100.00;99344.78;4915327;29;19930;-79
2021/12/25 09:00:26;;;;;;;;;;;9.70;99.90;;;9.73;100.00;99345.88;4900203;29;20577;-79
2021/12/25 09:02:54;;;;;;;;;;;9.90;99.90;;;9.81;100.00;99346.47;4930882;29;19939;-79
2021/12/25 09:05:21;;;;;;;;;;;9.60;99.90;;;9.80;100.00;99347.38;4915580;29;19927;-80
2021/12/25 09:07:50;;;;;;;;;;;9.70;99.90;;;9.79;100.00;99348.28;4931437;29;19982;-80
2021/12/25 09:10:18;;;;;;;;;;;10.30;99.90;;;9.83;100.00;99342.00;4920182;29;19934;-80
2021/12/25 09:12:45;;;;;;;;;;;9.70;99.90;;;9.86;100.00;99349.78;4934729;29;20002;-78
2021/12/25 09:15:13;;;;;;;;;;;9.70;99.90;;;9.88;100.00;99353.19;4921980;29;19930;-79
2021/12/25 09:17:40;;;;;;;;;;;8.40;99.90;;;9.91;100.00;99353.09;4905937;29;19937;-79
2021/12/25 09:20:08;;;;;;;;;;;9.70;99.90;;;9.98;100.00;99358.09;4921545;29;19931;-80
2021/12/25 09:22:35;;;;;;;;;;;9.70;99.90;;;9.95;100.00;99359.06;4922100;29;19963;-79
2021/12/25 09:25:03;;;;;;;;;;;9.80;99.90;;;10.02;100.00;99360.56;4920195;29;19931;-79
2021/12/25 09:27:30;;;;;;;;;;;9.80;99.90;;;10.04;100.00;99353.47;4921540;29;20013;-79
2021/12/25 09:29:58;;;;;;;;;;;10.30;99.90;;;10.08;100.00;99360.31;4935773;29;20018;-79
2021/12/25 09:32:25;;;;;;;;;;;9.80;99.90;;;10.08;100.00;99355.06;4927381;28;20020;-78
2021/12/25 09:34:52;;;;;;;;;;;9.90;99.90;;;10.18;100.00;99366.09;4973742;28;19926;-77
2021/12/25 09:37:20;;;;;;;;;;;9.90;99.90;;;10.21;100.00;99368.59;4972273;28;19930;-77
2021/12/25 09:39:47;;;;;;;;;;;11.20;99.90;;;10.16;100.00;99373.19;4971824;28;19926;-78
2021/12/25 09:42:14;;;;;;;;;;;9.90;99.90;;;10.13;100.00;99370.66;4960723;28;19940;-77
2021/12/25 09:44:41;;;;;;;;;;;10.30;99.90;;;10.17;100.00;99374.88;4968618;28;19926;-77
2021/12/25 09:47:08;;;;;;;;;;;10.00;99.90;;;10.24;100.00;99377.31;4968859;28;19930;-77
2021/12/25 09:49:35;;;;;;;;;;;10.00;99.90;;;10.26;100.00;99376.31;4970187;28;19959;-77
2021/12/25 09:52:03;;;;;;;;;;;10.00;99.90;;;10.26;100.00;99372.84;4968911;28;19926;-79
2021/12/25 09:54:30;;;;;;;;;;;10.10;99.90;;;10.33;100.00;99366.41;4978765;28;19937;-78
2021/12/25 09:56:58;;;;;;;;;;;10.10;99.90;;;10.36;100.00;99367.16;4970806;28;19936;-79
2021/12/25 09:59:28;;;;;;;;;;;10.20;99.90;;;10.36;100.00;99367.16;4953949;28;19937;-79
2021/12/25 10:01:56;;;;;;;;;;;10.20;99.90;;;10.43;100.00;99367.81;4986526;28;19953;-78
2021/12/25 10:04:38;;;;;;;;;;;10.20;99.90;;;10.50;100.00;99373.69;4974197;28;20040;-79
2021/12/25 10:07:31;;;;;;;;;;;10.30;99.90;;;10.55;100.00;99365.59;4974132;28;19930;-78
2021/12/25 10:09:58;;;;;;;;;;;10.30;99.90;;;10.53;100.00;99364.78;4950330;28;19937;-79
2021/12/25 10:12:37;;;;;;;;;;;10.30;99.90;;;10.53;100.00;99370.03;4972389;28;19930;-77
2021/12/25 10:15:08;;;;;;;;;;;10.30;99.90;;;10.50;100.00;99371.03;4976896;28;19946;-76
2021/12/25 10:17:41;;;;;;;;;;;10.30;99.90;;;10.48;100.00;99375.50;4978148;28;20041;-79
2021/12/25 10:20:12;;;;;;;;;;;10.40;99.90;;;10.50;100.00;99371.88;4988357;28;20455;-78
2021/12/25 10:23:00;;;;;;;;;;;10.40;99.90;;;10.53;100.00;99375.31;4970516;28;19998;-78
2021/12/25 10:25:38;;;;;;;;;;;10.40;99.90;;;10.52;100.00;99373.59;4974570;28;19938;-79
2021/12/25 10:28:07;;;;;;;;;;;10.40;99.90;;;10.53;100.00;99372.69;4984450;28;19926;-79
2021/12/25 10:30:58;;;;;;;;;;;10.40;99.90;;;10.62;100.00;99374.94;4984642;28;19930;-79
2021/12/25 10:33:50;;;;;;;;;;;10.40;99.90;;;10.57;100.00;99374.28;4971776;28;20568;-78
2021/12/25 10:36:35;;;;;;;;;;;10.50;99.90;;;10.61;100.00;99378.50;4973648;28;19930;-79
2021/12/25 10:39:09;;;;;;;;;;;10.40;99.90;;;10.56;100.00;99375.22;4979972;28;19972;-78
2021/12/25 10:41:40;;;;;;;;;;;10.50;99.90;;;10.60;100.00;99376.78;4922914;29;19962;-80
2021/12/25 10:44:22;;;;;;;;;;;10.50;99.90;;;10.57;100.00;99375.13;4969777;28;19985;-78
2021/12/25 10:46:57;;;;;;;;;;;10.50;99.90;;;10.55;100.00;99373.50;4965113;28;19926;-79
2021/12/25 10:49:28;;;;;;;;;;;10.50;99.90;;;10.59;100.00;99372.44;4973625;28;19961;-78
2021/12/25 10:52:08;;;;;;;;;;;10.40;99.90;;;10.59;100.00;99375.09;4973123;28;19958;-77
2021/12/25 10:54:41;;;;;;;;;;;11.90;99.90;;;10.61;100.00;99376.75;4957971;28;19965;-78
2021/12/25 10:57:09;;;;;;;;;;;10.70;99.90;;;10.56;100.00;99378.69;4957990;28;20255;-78
2021/12/25 10:59:47;;;;;;;;;;;10.80;99.90;;;10.59;100.00;99373.28;4976075;28;19926;-79
2021/12/25 11:02:46;;;;;;;;;;;10.40;99.90;;;10.61;100.00;99367.97;4977365;28;19993;-78
2021/12/25 11:05:20;;;;;;;;;;;10.50;99.90;;;10.65;100.00;99372.19;4950876;28;19930;-77
2021/12/25 11:08:00;;;;;;;;;;;10.50;99.90;;;10.70;100.00;99369.38;4972850;28;19926;-79
2021/12/25 11:10:29;;;;;;;;;;;10.50;99.90;;;10.61;100.00;99367.97;4973293;28;19926;-80
2021/12/25 11:12:57;;;;;;;;;;;10.60;99.90;;;10.77;100.00;99365.56;4954873;28;20025;-79
2021/12/25 11:15:29;;;;;;;;;;;10.90;99.90;;;10.88;100.00;99359.88;4954635;29;20026;-82
2021/12/25 11:18:06;;;;;;;;;;;11.10;99.90;;;10.92;100.00;99359.66;4988244;28;19989;-79
2021/12/25 11:20:36;;;;;;;;;;;10.70;99.90;;;10.95;100.00;99361.34;4990720;28;20659;-79
2021/12/25 11:23:05;;;;;;;;;;;10.70;99.90;;;11.00;100.00;99356.72;4991804;28;19934;-79
2021/12/25 11:25:34;;;;;;;;;;;10.70;99.90;;;10.97;100.00;99354.22;4988566;28;19952;-78
2021/12/25 11:28:03;;;;;;;;;;;10.80;99.90;;;10.97;100.00;99362.13;4988518;28;19945;-80
2021/12/25 11:30:32;;;;;;;;;;;11.10;99.90;;;11.03;100.00;99364.50;4924888;28;1818403;-79
2021/12/25 11:33:00;;;;;;;;;;;10.80;99.90;;;10.96;100.00;99370.94;4949891;28;19926;-80
2021/12/25 11:35:28;;;;;;;;;;;12.20;99.90;;;10.90;100.00;99369.41;4974236;28;19933;-79
2021/12/25 11:37:56;;;;;;;;;;;10.70;99.90;;;10.61;100.00;99373.25;4975637;28;19937;-79
2021/12/25 11:40:25;;;;;;;;;;;10.70;99.90;;;10.49;100.00;99364.91;4990943;28;19930;-80
2021/12/25 11:42:56;;;;;;;;;;;10.50;99.90;;;10.39;100.00;99360.94;4973223;28;19945;-81
2021/12/25 11:45:36;;;;;;;;;;;10.70;99.90;;;10.20;100.00;99353.72;4973934;28;19933;-79
2021/12/25 11:48:21;;;;;;;;;;;10.20;99.90;;;10.10;100.00;99359.41;4975473;28;19953;-80
2021/12/25 11:50:52;;;;;;;;;;;10.20;99.90;;;10.03;100.00;99357.03;4978701;28;19930;-79
2021/12/25 11:53:25;;;;;;;;;;;10.10;99.90;;;9.95;100.00;99355.59;4978095;28;19937;-79
2021/12/25 11:58:48;;;;;;;;;;;9.90;99.90;;;9.74;100.00;99363.34;4976548;28;19930;-78
2021/12/25 12:01:22;;;;;;;;;;;9.80;99.90;;;9.68;100.00;99353.09;4976588;28;19948;-77
2021/12/25 12:03:55;;;;;;;;;;;9.80;99.90;;;9.59;100.00;99365.63;4975287;28;19968;-79
2021/12/25 12:06:47;;;;;;;;;;;9.70;99.90;;;9.62;100.00;99373.41;4970968;28;19936;-78
2021/12/25 12:09:26;;;;;;;;;;;9.60;99.90;;;9.46;100.00;99370.47;4998908;28;20366;-79
2021/12/25 12:12:26;;;;;;;;;;;9.50;99.90;;;9.33;100.00;99375.31;4968094;28;19930;-79
2021/12/25 12:15:14;;;;;;;;;;;9.40;99.90;;;9.24;100.00;99370.34;4970149;28;20018;-78
2021/12/25 12:18:29;;;;;;;;;;;9.40;99.90;;;9.07;100.00;99374.41;4974435;28;19936;-78
2021/12/25 12:21:19;;;;;;;;;;;9.30;99.90;;;8.93;100.00;99371.41;4991629;28;19930;-78
2021/12/25 12:26:44;;;;;;;;;;;9.10;99.90;;;8.82;100.00;99390.13;4964646;28;20025;-77
2021/12/25 12:29:12;;;;;;;;;;;9.00;99.90;;;8.64;100.00;99384.56;4973467;28;19932;-79
2021/12/25 12:31:47;;;;;;;;;;;10.60;99.90;;;8.58;100.00;99387.34;4972981;28;19931;-78
2021/12/25 12:34:30;;;;;;;;;;;8.80;99.90;;;8.34;100.00;99395.06;4966050;28;19934;-78
2021/12/25 12:37:15;;;;;;;;;;;8.60;99.90;;;8.29;100.00;99391.72;4963150;28;19968;-78
2021/12/25 12:40:04;;;;;;;;;;;8.60;99.90;;;8.07;100.00;99397.59;4950586;29;19933;-77
2021/12/25 12:42:41;;;;;;;;;;;8.50;99.90;;;8.13;100.00;99399.19;4924074;29;19948;-77
2021/12/25 12:45:13;;;;;;;;;;;8.30;99.90;;;8.13;100.00;99396.56;4951354;29;19930;-77
2021/12/25 12:47:41;;;;;;;;;;;8.20;99.90;;;8.06;100.00;99393.25;4954975;29;19927;-77
2021/12/25 12:50:11;;;;;;;;;;;8.70;99.90;;;8.05;100.00;99407.25;4950418;29;20500;-77
2021/12/25 12:52:40;;;;;;;;;;;8.20;99.90;;;8.01;100.00;99402.16;4950205;29;19968;-78
2021/12/25 12:55:11;;;;;;;;;;;8.10;99.90;;;8.00;100.00;99411.78;4950457;29;19930;-77
2021/12/25 12:57:40;;;;;;;;;;;8.10;99.90;;;7.88;100.00;99417.38;4935011;29;20674;-78
2021/12/25 13:00:20;;;;;;;;;;;8.10;99.90;;;7.87;100.00;99423.50;4952008;28;20415;-78
2021/12/25 13:02:49;;;;;;;;;;;8.00;99.90;;;7.67;100.00;99419.69;4985215;28;20406;-77
2021/12/25 13:05:25;;;;;;;;;;;7.90;99.90;;;7.68;100.00;99412.69;4968980;28;20383;-77
2021/12/25 13:07:55;;;;;;;;;;;7.90;99.90;;;7.65;100.00;99417.09;4953282;28;19930;-76